Time;durP1;ratioP1;P1;durP2;ratioP2;P2;SDS_P1;SDS_P2;PMS_P1;PMS_P2;Temp;Humidity;BMP_temperature;BMP_pressure;BME280_temperature;BME280_humidity;BME280_pressure;Samples;Min_cycle;Max_cycle;Signal;HPM_P1;HPM_P2
2023/04/20 00:01:45;;;;;;;24.80;13.70;;;;;;;;;;110631;1276;22183;-73
2023/04/20 00:04:16;;;;;;;28.50;15.30;;;;;;;;;;110417;1277;22568;-73
2023/04/20 00:06:44;;;;;;;27.20;15.40;;;;;;;;;;110241;1257;22279;-73
2023/04/20 00:09:11;;;;;;;26.80;15.20;;;;;;;;;;110404;1277;22253;-74
2023/04/20 00:11:38;;;;;;;27.30;14.90;;;;;;;;;;110233;1277;22934;-73
2023/04/20 00:14:05;;;;;;;28.30;15.40;;;;;;;;;;110369;1277;22088;-73
2023/04/20 00:16:32;;;;;;;29.00;16.90;;;;;;;;;;110554;1259;22124;-73
2023/04/20 00:18:59;;;;;;;33.30;18.20;;;;;;;;;;110418;1276;22201;-73
2023/04/20 00:21:26;;;;;;;32.10;16.00;;;;;;;;;;110447;1276;22052;-73
2023/04/20 00:23:53;;;;;;;28.00;15.80;;;;;;;;;;110648;1253;22766;-74
2023/04/20 00:26:25;;;;;;;25.70;14.50;;;;;;;;;;110740;1253;21997;-73
2023/04/20 00:28:52;;;;;;;27.40;15.00;;;;;;;;;;110481;1276;22171;-73
2023/04/20 00:31:19;;;;;;;23.80;13.60;;;;;;;;;;110566;1276;22896;-73
2023/04/20 00:33:50;;;;;;;26.30;14.80;;;;;;;;;;110559;1277;21706;-73
2023/04/20 00:36:16;;;;;;;22.20;12.50;;;;;;;;;;110760;1253;22199;-74
2023/04/20 00:38:46;;;;;;;23.00;12.10;;;;;;;;;;110348;1276;22337;-74
2023/04/20 00:41:13;;;;;;;25.00;14.30;;;;;;;;;;110335;1277;22252;-74
2023/04/20 00:43:50;;;;;;;25.40;14.60;;;;;;;;;;110529;1277;22835;-73
2023/04/20 00:46:17;;;;;;;25.20;14.70;;;;;;;;;;110698;1253;22158;-74
2023/04/20 00:48:44;;;;;;;24.90;14.90;;;;;;;;;;110590;1257;22206;-74
2023/04/20 00:58:23;;;;;;;24.20;13.80;;;;;;;;;;110196;1263;23057;-73
2023/04/20 01:00:54;;;;;;;26.00;15.20;;;;;;;;;;110431;1258;22164;-73
2023/04/20 01:03:21;;;;;;;29.60;16.60;;;;;;;;;;110117;1281;22176;-73
2023/04/20 01:06:32;;;;;;;29.30;17.00;;;;;;;;;;109779;1263;22896;-74
2023/04/20 01:08:59;;;;;;;27.80;15.60;;;;;;;;;;109794;1287;22299;-74
2023/04/20 01:11:26;;;;;;;26.90;15.20;;;;;;;;;;109781;1287;22147;-73
2023/04/20 01:13:55;;;;;;;23.30;14.20;;;;;;;;;;109813;1287;22141;-74
2023/04/20 01:16:35;;;;;;;22.70;13.50;;;;;;;;;;109762;1264;22472;-74
2023/04/20 01:22:50;;;;;;;23.80;13.30;;;;;;;;;;109991;1284;22237;-74
2023/04/20 01:25:17;;;;;;;24.50;13.50;;;;;;;;;;109987;1284;22164;-73
2023/04/20 01:27:44;;;;;;;26.30;14.80;;;;;;;;;;110062;1265;22907;-74
2023/04/20 01:30:11;;;;;;;26.80;14.80;;;;;;;;;;110072;1281;22301;-73
2023/04/20 01:32:48;;;;;;;;;;;;;;;;;;;;;
2023/04/20 01:39:42;;;;;;;31.30;15.80;;;;;;;;;;110152;1259;22157;-74
2023/04/20 01:42:09;;;;;;;30.70;15.70;;;;;;;;;;109998;1282;22094;-74
2023/04/20 01:44:36;;;;;;;27.80;14.60;;;;;;;;;;109996;1282;22150;-74
2023/04/20 01:47:03;;;;;;;24.90;13.50;;;;;;;;;;110057;1282;22948;-74
2023/04/20 01:49:29;;;;;;;27.40;13.90;;;;;;;;;;110304;1262;22742;-74
2023/04/20 01:51:57;;;;;;;30.50;16.70;;;;;;;;;;110079;1259;22151;-74
2023/04/20 01:54:24;;;;;;;31.20;17.00;;;;;;;;;;110027;1282;23056;-73
2023/04/20 01:56:51;;;;;;;31.10;17.40;;;;;;;;;;110033;1282;22376;-74
2023/04/20 02:06:41;;;;;;;23.80;13.20;;;;;;;;;;109967;1283;22357;-74
2023/04/20 02:09:12;;;;;;;24.70;14.00;;;;;;;;;;110083;1262;22151;-73
2023/04/20 02:11:41;;;;;;;25.00;13.80;;;;;;;;;;110033;1283;22027;-74
2023/04/20 02:14:11;;;;;;;24.10;14.30;;;;;;;;;;110011;1283;22188;-74
2023/04/20 02:16:47;;;;;;;26.10;15.40;;;;;;;;;;110038;1283;22144;-74
2023/04/20 02:26:19;;;;;;;27.00;14.50;;;;;;;;;;110390;1276;22143;-74
2023/04/20 02:28:48;;;;;;;26.40;14.80;;;;;;;;;;110510;1253;22174;-74
2023/04/20 02:38:21;;;;;;;23.70;14.00;;;;;;;;;;109891;1285;22838;-74
2023/04/20 02:41:29;;;;;;;28.10;14.70;;;;;;;;;;110146;1265;22209;-74
2023/04/20 02:43:56;;;;;;;24.50;14.50;;;;;;;;;;109878;1284;22150;-74
2023/04/20 02:46:23;;;;;;;25.80;15.20;;;;;;;;;;109890;1284;22142;-73
2023/04/20 02:48:49;;;;;;;26.10;15.00;;;;;;;;;;109956;1284;22059;-74
2023/04/20 02:58:41;;;;;;;26.80;14.50;;;;;;;;;;110497;1274;22193;-74
2023/04/20 03:01:34;;;;;;;29.80;16.30;;;;;;;;;;110853;1259;23214;-74
2023/04/20 03:04:06;;;;;;;28.90;17.10;;;;;;;;;;110272;1277;22123;-74
2023/04/20 03:06:35;;;;;;;28.20;16.80;;;;;;;;;;110272;1277;23194;-74
2023/04/20 03:12:57;;;;;;;27.60;15.40;;;;;;;;;;110119;1262;22197;-74
2023/04/20 03:15:50;;;;;;;27.20;14.20;;;;;;;;;;110009;1284;22249;-74
2023/04/20 03:18:47;;;;;;;25.20;14.50;;;;;;;;;;109920;1283;22152;-75
2023/04/20 03:21:14;;;;;;;25.60;13.90;;;;;;;;;;109883;1260;22247;-74
2023/04/20 03:23:40;;;;;;;22.40;12.00;;;;;;;;;;109963;1284;22211;-74
2023/04/20 03:26:08;;;;;;;21.40;12.90;;;;;;;;;;109947;1284;22806;-74
2023/04/20 03:29:09;;;;;;;24.60;13.40;;;;;;;;;;109888;1284;22221;-74
2023/04/20 03:31:37;;;;;;;25.90;15.20;;;;;;;;;;109817;1264;22206;-76
2023/04/20 03:34:07;;;;;;;24.20;14.10;;;;;;;;;;109832;1284;22132;-74
2023/04/20 03:36:34;;;;;;;24.10;13.80;;;;;;;;;;109844;1285;22147;-74
2023/04/20 03:39:03;;;;;;;23.20;14.10;;;;;;;;;;109897;1284;22153;-74
2023/04/20 03:48:48;;;;;;;26.70;14.80;;;;;;;;;;109913;1285;22126;-74
2023/04/20 03:51:16;;;;;;;27.00;15.40;;;;;;;;;;109815;1286;22155;-74
2023/04/20 03:53:50;;;;;;;26.40;14.10;;;;;;;;;;110114;1262;22174;-74
2023/04/20 03:56:18;;;;;;;22.20;13.40;;;;;;;;;;109845;1285;22151;-74
2023/04/20 03:58:46;;;;;;;23.40;13.00;;;;;;;;;;109948;1284;22264;-74
2023/04/20 04:01:17;;;;;;;23.00;12.80;;;;;;;;;;109868;1282;22155;-74
2023/04/20 04:03:47;;;;;;;23.60;13.60;;;;;;;;;;109961;1264;22949;-74
2023/04/20 04:06:14;;;;;;;22.40;13.80;;;;;;;;;;109790;1286;21994;-74
2023/04/20 04:08:42;;;;;;;24.90;15.60;;;;;;;;;;109818;1286;22151;-74
2023/04/20 04:11:09;;;;;;;26.90;16.00;;;;;;;;;;109741;1286;22135;-74
2023/04/20 04:13:37;;;;;;;27.20;16.00;;;;;;;;;;109982;1265;22372;-75
2023/04/20 04:16:06;;;;;;;28.30;16.50;;;;;;;;;;109879;1284;22836;-74
2023/04/20 04:18:34;;;;;;;27.80;16.10;;;;;;;;;;109817;1285;22161;-74
2023/04/20 04:21:07;;;;;;;26.50;15.10;;;;;;;;;;110065;1278;22122;-74
2023/04/20 04:23:36;;;;;;;23.90;14.50;;;;;;;;;;110396;1262;22151;-74
2023/04/20 04:26:23;;;;;;;27.30;14.70;;;;;;;;;;110110;1279;22140;-74
2023/04/20 04:28:52;;;;;;;24.30;13.20;;;;;;;;;;110312;1279;22013;-74
2023/04/20 04:31:24;;;;;;;27.90;14.10;;;;;;;;;;110187;1279;22280;-74
2023/04/20 04:33:58;;;;;;;23.70;14.00;;;;;;;;;;110183;1259;22872;-74
2023/04/20 04:36:32;;;;;;;27.80;15.20;;;;;;;;;;110251;1278;22782;-74
2023/04/20 04:39:05;;;;;;;26.00;14.40;;;;;;;;;;110167;1278;22276;-75
2023/04/20 04:41:35;;;;;;;25.10;13.90;;;;;;;;;;110175;1278;22399;-74
2023/04/20 04:44:16;;;;;;;25.80;14.30;;;;;;;;;;110369;1259;22061;-75
2023/04/20 04:54:17;;;;;;;24.90;15.10;;;;;;;;;;110318;1259;22069;-74
2023/04/20 04:56:46;;;;;;;28.20;14.80;;;;;;;;;;110127;1279;22109;-75
2023/04/20 04:59:15;;;;;;;23.00;12.90;;;;;;;;;;110238;1279;22857;-74
2023/04/20 05:01:45;;;;;;;26.30;14.30;;;;;;;;;;110067;1279;22160;-74
2023/04/20 05:04:15;;;;;;;26.00;14.30;;;;;;;;;;110472;1260;22220;-74
2023/04/20 05:06:44;;;;;;;25.10;14.10;;;;;;;;;;110134;1279;22273;-74
2023/04/20 05:09:13;;;;;;;31.10;13.90;;;;;;;;;;110237;1279;22881;-74
2023/04/20 05:11:51;;;;;;;33.30;15.10;;;;;;;;;;110229;1275;22194;-74
2023/04/20 05:14:23;;;;;;;28.90;14.00;;;;;;;;;;110279;1259;22095;-74
2023/04/20 05:17:01;;;;;;;26.40;13.30;;;;;;;;;;110138;1279;22880;-74
2023/04/20 05:19:30;;;;;;;26.80;13.40;;;;;;;;;;110075;1279;22077;-74
2023/04/20 05:22:04;;;;;;;23.70;13.70;;;;;;;;;;110133;1279;22100;-74
2023/04/20 05:24:33;;;;;;;28.00;12.90;;;;;;;;;;110257;1262;22011;-74
2023/04/20 05:27:03;;;;;;;24.60;12.70;;;;;;;;;;110266;1279;22100;-74
2023/04/20 05:36:32;;;;;;;27.70;15.20;;;;;;;;;;103798;1295;545008;-78
2023/04/20 05:39:12;;;;;;;30.80;14.90;;;;;;;;;;106313;1287;23008;-78
2023/04/20 05:41:54;;;;;;;27.00;14.20;;;;;;;;;;106100;1287;23155;-79
2023/04/20 05:44:42;;;;;;;;;;;;;;;;;;;;;
2023/04/20 05:47:13;;;;;;;25.00;14.00;;;;;;;;;;106253;1279;22575;-80
2023/04/20 05:49:52;;;;;;;30.50;13.70;;;;;;;;;;102153;1285;5396627;-79
2023/04/20 05:52:22;;;;;;;30.30;15.00;;;;;;;;;;106315;1285;22520;-77
2023/04/20 05:54:58;;;;;;;27.10;14.20;;;;;;;;;;106210;1285;25331;-78
2023/04/20 05:57:28;;;;;;;29.00;15.30;;;;;;;;;;106395;1269;25386;-79
2023/04/20 06:00:39;;;;;;;26.50;14.20;;;;;;;;;;106240;1285;23476;-78
2023/04/20 06:03:10;;;;;;;33.40;18.30;;;;;;;;;;106393;1282;25274;-77
2023/04/20 06:05:47;;;;;;;43.50;21.20;;;;;;;;;;106397;1279;22520;-78
2023/04/20 06:08:36;;;;;;;46.80;26.60;;;;;;;;;;106393;1283;22534;-79
2023/04/20 06:11:08;;;;;;;28.10;15.20;;;;;;;;;;106401;1279;25338;-78
2023/04/20 06:13:47;;;;;;;26.60;13.20;;;;;;;;;;106283;1285;22546;-80
2023/04/20 06:16:21;;;;;;;23.90;12.30;;;;;;;;;;106342;1263;22527;-75
2023/04/20 06:18:57;;;;;;;25.00;12.30;;;;;;;;;;106395;1285;24224;-76
2023/04/20 06:21:48;;;;;;;22.60;12.80;;;;;;;;;;106211;1285;24219;-77
2023/04/20 06:24:35;;;;;;;;;;;;;;;;;;;;;
2023/04/20 06:27:27;;;;;;;23.80;11.90;;;;;;;;;;106385;1266;25342;-78
2023/04/20 06:30:13;;;;;;;20.70;11.40;;;;;;;;;;106416;1283;22550;-75
2023/04/20 06:32:39;;;;;;;24.80;12.10;;;;;;;;;;109881;1285;22308;-73
2023/04/20 06:35:07;;;;;;;21.00;11.00;;;;;;;;;;109929;1286;22438;-73
2023/04/20 06:37:34;;;;;;;22.80;12.20;;;;;;;;;;109920;1266;22002;-73
2023/04/20 06:40:02;;;;;;;21.20;11.60;;;;;;;;;;109862;1286;22341;-74
2023/04/20 06:42:29;;;;;;;20.50;11.90;;;;;;;;;;109844;1286;22339;-74
2023/04/20 06:44:57;;;;;;;22.90;11.80;;;;;;;;;;109935;1282;22101;-75
2023/04/20 06:47:30;;;;;;;17.60;11.10;;;;;;;;;;109832;1269;22139;-74
2023/04/20 06:50:01;;;;;;;18.00;10.80;;;;;;;;;;109913;1282;22415;-74
2023/04/20 06:52:29;;;;;;;16.70;9.50;;;;;;;;;;109779;1285;22240;-75
2023/04/20 06:54:57;;;;;;;14.90;8.50;;;;;;;;;;109919;1279;23019;-74
2023/04/20 06:57:24;;;;;;;19.20;9.30;;;;;;;;;;109804;1268;22028;-73
2023/04/20 06:59:51;;;;;;;16.20;9.10;;;;;;;;;;109868;1286;22414;-74
2023/04/20 07:02:18;;;;;;;16.90;9.50;;;;;;;;;;109837;1285;22215;-74
2023/04/20 07:04:48;;;;;;;16.10;9.50;;;;;;;;;;109879;1282;23409;-73
2023/04/20 07:07:15;;;;;;;19.10;10.60;;;;;;;;;;109905;1263;22926;-74
2023/04/20 07:09:42;;;;;;;21.80;9.80;;;;;;;;;;109825;1287;22991;-74
2023/04/20 07:12:10;;;;;;;16.00;8.80;;;;;;;;;;109911;1286;22111;-74
2023/04/20 07:14:37;;;;;;;18.60;10.50;;;;;;;;;;110282;1278;22678;-73
2023/04/20 07:17:03;;;;;;;19.00;11.10;;;;;;;;;;110101;1278;22399;-74
2023/04/20 07:19:31;;;;;;;22.70;10.90;;;;;;;;;;110181;1265;22168;-74
2023/04/20 07:21:58;;;;;;;22.10;11.40;;;;;;;;;;110346;1278;22364;-74
2023/04/20 07:24:25;;;;;;;23.80;11.30;;;;;;;;;;110362;1278;23269;-74
2023/04/20 07:26:51;;;;;;;27.30;12.30;;;;;;;;;;110253;1278;22435;-74
2023/04/20 07:29:18;;;;;;;23.60;11.70;;;;;;;;;;110357;1268;23005;-74
2023/04/20 07:31:45;;;;;;;21.80;12.60;;;;;;;;;;110251;1279;22878;-74
2023/04/20 07:34:12;;;;;;;17.40;10.50;;;;;;;;;;110275;1279;22433;-74
2023/04/20 07:36:43;;;;;;;18.10;10.90;;;;;;;;;;110238;1279;22285;-75
2023/04/20 07:39:14;;;;;;;20.20;10.80;;;;;;;;;;110590;1269;22825;-75
2023/04/20 07:41:41;;;;;;;21.50;10.30;;;;;;;;;;110105;1279;22171;-75
2023/04/20 07:44:08;;;;;;;18.00;10.50;;;;;;;;;;110280;1279;22932;-74
2023/04/20 07:46:34;;;;;;;22.40;12.40;;;;;;;;;;110270;1279;22158;-75
2023/04/20 07:49:01;;;;;;;18.30;9.50;;;;;;;;;;110252;1273;22189;-75
2023/04/20 07:51:29;;;;;;;19.50;11.80;;;;;;;;;;110275;1278;21939;-75
2023/04/20 07:54:19;;;;;;;25.80;12.00;;;;;;;;;;110236;1279;22059;-75
2023/04/20 07:56:54;;;;;;;20.60;11.50;;;;;;;;;;110246;1279;22809;-75
2023/04/20 07:59:21;;;;;;;21.50;12.00;;;;;;;;;;110300;1275;22263;-75
2023/04/20 08:01:49;;;;;;;21.70;11.80;;;;;;;;;;110301;1279;22164;-75
2023/04/20 08:04:16;;;;;;;22.00;12.30;;;;;;;;;;110298;1279;22114;-75
2023/04/20 08:06:42;;;;;;;23.60;12.90;;;;;;;;;;110437;1279;22069;-75
2023/04/20 08:09:09;;;;;;;21.90;12.60;;;;;;;;;;110321;1262;22144;-75
2023/04/20 08:11:46;;;;;;;29.70;18.10;;;;;;;;;;110426;1279;22193;-80
2023/04/20 08:14:13;;;;;;;26.20;15.40;;;;;;;;;;110226;1279;22136;-75
2023/04/20 08:16:40;;;;;;;31.00;17.00;;;;;;;;;;110298;1275;22846;-75
2023/04/20 08:19:13;;;;;;;28.00;15.80;;;;;;;;;;110368;1260;22842;-77
2023/04/20 08:21:40;;;;;;;47.30;30.60;;;;;;;;;;110286;1279;22075;-75
2023/04/20 08:24:07;;;;;;;45.60;26.80;;;;;;;;;;110131;1279;22115;-77
2023/04/20 08:26:34;;;;;;;47.00;30.20;;;;;;;;;;110236;1279;22069;-75
2023/04/20 08:29:02;;;;;;;40.70;26.40;;;;;;;;;;110230;1262;22125;-75
2023/04/20 08:35:40;;;;;;;29.10;16.50;;;;;;;;;;110264;1279;22759;-76
2023/04/20 08:38:07;;;;;;;24.20;15.50;;;;;;;;;;110091;1279;22238;-76
2023/04/20 08:40:35;;;;;;;36.20;25.50;;;;;;;;;;110364;1262;22315;-75
2023/04/20 08:43:02;;;;;;;45.40;26.60;;;;;;;;;;110067;1279;22169;-75
2023/04/20 08:45:29;;;;;;;37.20;21.00;;;;;;;;;;110198;1278;22088;-77
2023/04/20 08:48:02;;;;;;;32.80;19.10;;;;;;;;;;110326;1278;22162;-74
2023/04/20 08:50:29;;;;;;;30.00;16.20;;;;;;;;;;110532;1259;22230;-74
2023/04/20 08:52:56;;;;;;;35.40;18.50;;;;;;;;;;110170;1278;22120;-74
2023/04/20 08:55:23;;;;;;;46.30;22.90;;;;;;;;;;110259;1278;23005;-74
2023/04/20 08:57:50;;;;;;;33.60;17.10;;;;;;;;;;110107;1278;22169;-75
2023/04/20 09:00:17;;;;;;;33.80;19.00;;;;;;;;;;110459;1260;22137;-74
2023/04/20 09:02:51;;;;;;;32.30;17.30;;;;;;;;;;110211;1278;22145;-76
2023/04/20 09:05:25;;;;;;;27.80;15.70;;;;;;;;;;110344;1278;22243;-76
2023/04/20 09:07:56;;;;;;;28.20;15.10;;;;;;;;;;110322;1278;22825;-75
2023/04/20 09:10:23;;;;;;;31.70;16.00;;;;;;;;;;110381;1259;22146;-74
2023/04/20 09:12:50;;;;;;;28.90;15.60;;;;;;;;;;110270;1278;22469;-75
2023/04/20 09:15:26;;;;;;;31.20;17.30;;;;;;;;;;110393;1278;22853;-74
2023/04/20 09:17:53;;;;;;;35.80;19.30;;;;;;;;;;110405;1278;22082;-74
2023/04/20 09:20:33;;;;;;;34.30;18.00;;;;;;;;;;110396;1260;22123;-74
2023/04/20 09:23:13;;;;;;;32.80;17.10;;;;;;;;;;110197;1278;22130;-74
2023/04/20 09:25:42;;;;;;;31.30;16.90;;;;;;;;;;110228;1278;22132;-74
2023/04/20 09:28:09;;;;;;;33.00;17.30;;;;;;;;;;110200;1278;22889;-74
2023/04/20 09:30:40;;;;;;;32.50;16.70;;;;;;;;;;110445;1257;22121;-74
2023/04/20 09:33:19;;;;;;;29.10;16.80;;;;;;;;;;110230;1278;22321;-74
2023/04/20 09:35:55;;;;;;;30.40;16.90;;;;;;;;;;110302;1278;22171;-74
2023/04/20 09:38:25;;;;;;;28.60;15.20;;;;;;;;;;110279;1278;22860;-74
2023/04/20 09:40:52;;;;;;;29.10;17.10;;;;;;;;;;110415;1257;22252;-73
2023/04/20 09:43:24;;;;;;;27.20;16.10;;;;;;;;;;110314;1278;22086;-74
2023/04/20 09:45:53;;;;;;;29.30;15.70;;;;;;;;;;110256;1278;22117;-74
2023/04/20 09:48:20;;;;;;;28.50;16.40;;;;;;;;;;110234;1276;22977;-74
2023/04/20 09:50:47;;;;;;;26.30;15.60;;;;;;;;;;110312;1260;22168;-74
2023/04/20 09:53:18;;;;;;;24.60;15.30;;;;;;;;;;110128;1278;22723;-77
2023/04/20 09:55:47;;;;;;;29.40;17.00;;;;;;;;;;110314;1278;22108;-76
2023/04/20 09:58:16;;;;;;;29.00;16.20;;;;;;;;;;110308;1278;23084;-75
2023/04/20 10:00:45;;;;;;;31.80;16.00;;;;;;;;;;110307;1257;22228;-75
2023/04/20 10:03:15;;;;;;;29.40;16.60;;;;;;;;;;110291;1278;22134;-75
2023/04/20 10:05:42;;;;;;;28.90;17.00;;;;;;;;;;110214;1278;22204;-76
2023/04/20 10:08:10;;;;;;;30.00;17.30;;;;;;;;;;110312;1278;22259;-75
2023/04/20 10:10:44;;;;;;;33.90;17.90;;;;;;;;;;110276;1257;23018;-75
2023/04/20 10:13:11;;;;;;;30.30;17.40;;;;;;;;;;110311;1278;22121;-75
2023/04/20 10:15:39;;;;;;;30.00;16.70;;;;;;;;;;110317;1278;22133;-75
2023/04/20 10:18:16;;;;;;;29.80;18.30;;;;;;;;;;110309;1278;22189;-75
2023/04/20 10:20:43;;;;;;;27.10;16.40;;;;;;;;;;110301;1257;22389;-75
2023/04/20 10:23:13;;;;;;;28.40;16.70;;;;;;;;;;110245;1278;22146;-75
2023/04/20 10:25:41;;;;;;;29.50;17.30;;;;;;;;;;110253;1278;22105;-75
2023/04/20 10:28:11;;;;;;;33.40;18.50;;;;;;;;;;110254;1278;22118;-75
2023/04/20 10:30:48;;;;;;;31.10;18.10;;;;;;;;;;110309;1278;22928;-75
2023/04/20 10:33:16;;;;;;;30.30;18.30;;;;;;;;;;110513;1263;22222;-74
2023/04/20 10:35:50;;;;;;;30.80;19.10;;;;;;;;;;110283;1279;22239;-75
2023/04/20 10:38:30;;;;;;;32.30;17.30;;;;;;;;;;110285;1279;22884;-75
2023/04/20 10:44:57;;;;;;;26.20;15.30;;;;;;;;;;110399;1260;22161;-77
2023/04/20 10:51:11;;;;;;;24.10;14.70;;;;;;;;;;110197;1279;22709;-75
2023/04/20 10:53:38;;;;;;;24.80;15.30;;;;;;;;;;110498;1258;22105;-75
2023/04/20 10:56:06;;;;;;;23.60;15.00;;;;;;;;;;110497;1277;22097;-76
2023/04/20 10:58:33;;;;;;;25.10;14.90;;;;;;;;;;110228;1276;22127;-76
2023/04/20 11:01:00;;;;;;;24.40;15.30;;;;;;;;;;110380;1277;22143;-77
2023/04/20 11:03:29;;;;;;;23.00;14.30;;;;;;;;;;110471;1254;22259;-76
2023/04/20 11:06:02;;;;;;;26.80;14.30;;;;;;;;;;110393;1270;22116;-75
2023/04/20 11:08:39;;;;;;;25.00;15.00;;;;;;;;;;110366;1277;22143;-75
2023/04/20 11:11:29;;;;;;;24.20;14.30;;;;;;;;;;110421;1264;22610;-75
2023/04/20 11:14:06;;;;;;;21.60;13.80;;;;;;;;;;110447;1254;22833;-74
2023/04/20 11:16:36;;;;;;;23.70;13.70;;;;;;;;;;110487;1277;22142;-74
2023/04/20 11:19:03;;;;;;;25.50;14.90;;;;;;;;;;110433;1276;22110;-74
2023/04/20 11:21:41;;;;;;;23.30;14.80;;;;;;;;;;110408;1277;22847;-74
2023/04/20 11:24:21;;;;;;;22.40;13.40;;;;;;;;;;110412;1257;22218;-75
2023/04/20 11:26:49;;;;;;;24.60;15.40;;;;;;;;;;110364;1277;22108;-74
2023/04/20 11:29:29;;;;;;;24.30;14.80;;;;;;;;;;110359;1277;22103;-74
2023/04/20 11:31:57;;;;;;;26.00;15.50;;;;;;;;;;110162;1278;22214;-75
2023/04/20 11:34:24;;;;;;;24.20;15.40;;;;;;;;;;110230;1258;22113;-74
2023/04/20 11:36:51;;;;;;;23.90;14.80;;;;;;;;;;110253;1278;22123;-75
2023/04/20 11:39:22;;;;;;;23.20;14.50;;;;;;;;;;110260;1278;22127;-74
2023/04/20 11:41:50;;;;;;;26.80;15.70;;;;;;;;;;110183;1278;22948;-75
2023/04/20 11:44:19;;;;;;;25.50;15.40;;;;;;;;;;110399;1257;22163;-75
2023/04/20 11:46:52;;;;;;;22.20;14.70;;;;;;;;;;110264;1278;22111;-74
2023/04/20 11:49:22;;;;;;;26.30;15.60;;;;;;;;;;110353;1278;22134;-76
2023/04/20 11:51:50;;;;;;;23.10;15.40;;;;;;;;;;110375;1278;22058;-75
2023/04/20 11:54:20;;;;;;;25.00;16.00;;;;;;;;;;110380;1257;22169;-73
2023/04/20 11:56:48;;;;;;;25.80;15.50;;;;;;;;;;110284;1278;22142;-75
2023/04/20 11:59:18;;;;;;;23.90;14.70;;;;;;;;;;110359;1278;22316;-75
2023/04/20 12:01:46;;;;;;;23.80;14.80;;;;;;;;;;110377;1278;22724;-75
2023/04/20 12:04:16;;;;;;;22.00;15.00;;;;;;;;;;110369;1278;22151;-75
2023/04/20 12:06:43;;;;;;;23.90;15.10;;;;;;;;;;110569;1265;22739;-75
2023/04/20 12:09:12;;;;;;;25.90;14.10;;;;;;;;;;110366;1272;22139;-75
2023/04/20 12:11:39;;;;;;;19.70;13.50;;;;;;;;;;110387;1278;22199;-75
2023/04/20 12:14:06;;;;;;;28.90;14.90;;;;;;;;;;110376;1278;22228;-75
2023/04/20 12:16:34;;;;;;;22.00;13.40;;;;;;;;;;110609;1260;22110;-74
2023/04/20 12:19:01;;;;;;;21.40;13.90;;;;;;;;;;110388;1278;22602;-76
2023/04/20 12:21:28;;;;;;;26.60;15.60;;;;;;;;;;110379;1278;22905;-74
2023/04/20 12:23:57;;;;;;;21.50;13.90;;;;;;;;;;110364;1278;22159;-74
2023/04/20 12:26:25;;;;;;;23.10;15.00;;;;;;;;;;110551;1270;22417;-74
2023/04/20 12:28:52;;;;;;;21.50;15.00;;;;;;;;;;110364;1278;22130;-75
2023/04/20 12:31:21;;;;;;;21.80;14.90;;;;;;;;;;110180;1279;22327;-74
2023/04/20 12:33:52;;;;;;;22.90;14.80;;;;;;;;;;110243;1279;22141;-75
2023/04/20 12:36:21;;;;;;;28.70;16.10;;;;;;;;;;110410;1261;22138;-74
2023/04/20 12:38:54;;;;;;;23.80;15.10;;;;;;;;;;110232;1279;22134;-74
2023/04/20 12:41:22;;;;;;;20.30;14.50;;;;;;;;;;110178;1279;22148;-77
2023/04/20 12:43:50;;;;;;;27.00;15.60;;;;;;;;;;110209;1279;22332;-75
2023/04/20 12:46:18;;;;;;;23.60;16.00;;;;;;;;;;110441;1257;22313;-74
2023/04/20 12:48:45;;;;;;;27.60;17.70;;;;;;;;;;110282;1279;22104;-74
2023/04/20 12:51:13;;;;;;;26.80;17.40;;;;;;;;;;110310;1279;22161;-74
2023/04/20 12:53:41;;;;;;;24.80;16.30;;;;;;;;;;110309;1279;22113;-76
2023/04/20 12:56:10;;;;;;;24.00;16.00;;;;;;;;;;110379;1257;22883;-75
2023/04/20 12:58:37;;;;;;;24.50;17.30;;;;;;;;;;110201;1279;22147;-74
2023/04/20 13:01:05;;;;;;;25.50;16.90;;;;;;;;;;110267;1279;22169;-74
2023/04/20 13:03:32;;;;;;;29.40;18.90;;;;;;;;;;110207;1279;22140;-74
2023/04/20 13:06:01;;;;;;;23.60;16.70;;;;;;;;;;110286;1256;22830;-73
2023/04/20 13:08:29;;;;;;;23.60;16.80;;;;;;;;;;110326;1279;22303;-75
2023/04/20 13:11:17;;;;;;;24.60;17.60;;;;;;;;;;110361;1279;22104;-75
2023/04/20 13:13:44;;;;;;;26.90;17.60;;;;;;;;;;110335;1279;22143;-74
2023/04/20 13:16:12;;;;;;;26.00;16.90;;;;;;;;;;110151;1260;22157;-74
2023/04/20 13:18:39;;;;;;;26.90;17.40;;;;;;;;;;110190;1279;22834;-74
2023/04/20 13:21:07;;;;;;;24.90;16.70;;;;;;;;;;110173;1279;22401;-74
2023/04/20 13:23:36;;;;;;;24.60;17.00;;;;;;;;;;110206;1279;22916;-73
2023/04/20 13:26:05;;;;;;;25.10;16.60;;;;;;;;;;110234;1256;22981;-75
2023/04/20 13:28:36;;;;;;;32.00;18.60;;;;;;;;;;110154;1279;22134;-74
2023/04/20 13:31:06;;;;;;;39.00;22.00;;;;;;;;;;110145;1279;22394;-74
2023/04/20 13:33:35;;;;;;;28.20;17.60;;;;;;;;;;110297;1279;22125;-74
2023/04/20 13:36:04;;;;;;;29.60;18.10;;;;;;;;;;110153;1279;23097;-75
2023/04/20 13:38:33;;;;;;;38.30;20.50;;;;;;;;;;110487;1258;22754;-76
2023/04/20 13:41:28;;;;;;;37.50;21.20;;;;;;;;;;110176;1279;23156;-75
2023/04/20 13:43:56;;;;;;;26.40;16.20;;;;;;;;;;110176;1279;22778;-74
2023/04/20 13:46:25;;;;;;;28.00;16.10;;;;;;;;;;110152;1256;22071;-75
2023/04/20 13:55:49;;;;;;;31.70;18.70;;;;;;;;;;110269;1279;22185;-74
2023/04/20 13:58:46;;;;;;;26.70;15.40;;;;;;;;;;110535;1256;22167;-73
2023/04/20 14:02:29;;;;;;;;;;;;;;;;;;;;;
2023/04/20 14:09:39;;;;;;;22.90;14.20;;;;;;;;;;109959;1260;22319;-74
2023/04/20 14:12:09;;;;;;;23.50;14.40;;;;;;;;;;109968;1283;22379;-73
2023/04/20 14:14:38;;;;;;;24.00;14.90;;;;;;;;;;109984;1283;22014;-73
2023/04/20 14:17:07;;;;;;;22.80;13.70;;;;;;;;;;109954;1283;22106;-74
2023/04/20 14:19:35;;;;;;;21.40;13.40;;;;;;;;;;109847;1267;22248;-73
2023/04/20 14:22:04;;;;;;;20.90;12.70;;;;;;;;;;109950;1284;22244;-73
2023/04/20 14:24:34;;;;;;;23.70;13.50;;;;;;;;;;109956;1284;22184;-74
2023/04/20 14:27:03;;;;;;;28.00;15.00;;;;;;;;;;109875;1284;22837;-74
2023/04/20 14:36:42;;;;;;;24.00;13.90;;;;;;;;;;103758;1304;545923;-80
2023/04/20 14:39:09;;;;;;;21.50;13.60;;;;;;;;;;106314;1287;24238;-81
2023/04/20 14:41:36;;;;;;;21.40;13.60;;;;;;;;;;106220;1287;22657;-74
2023/04/20 14:44:03;;;;;;;21.10;12.50;;;;;;;;;;106331;1287;25295;-81
2023/04/20 14:46:30;;;;;;;20.60;12.50;;;;;;;;;;106202;1269;22534;-79
2023/04/20 14:48:57;;;;;;;22.60;13.10;;;;;;;;;;106897;1252;24233;-75
2023/04/20 14:51:24;;;;;;;20.50;12.50;;;;;;;;;;105114;1273;2630427;-76
2023/04/20 14:53:51;;;;;;;22.70;13.10;;;;;;;;;;107136;1273;22530;-80
2023/04/20 14:56:17;;;;;;;23.30;14.00;;;;;;;;;;107124;1256;24255;-80
2023/04/20 14:58:46;;;;;;;23.50;14.10;;;;;;;;;;107134;1273;25465;-76
2023/04/20 15:01:13;;;;;;;21.50;13.00;;;;;;;;;;107182;1273;25353;-78
2023/04/20 15:03:40;;;;;;;22.50;12.40;;;;;;;;;;107168;1273;25274;-76
2023/04/20 15:06:07;;;;;;;22.00;13.90;;;;;;;;;;107086;1251;22513;-80
2023/04/20 15:08:34;;;;;;;26.40;14.20;;;;;;;;;;107094;1273;22518;-79
2023/04/20 15:11:02;;;;;;;22.00;14.00;;;;;;;;;;107150;1273;25353;-78
2023/04/20 15:13:29;;;;;;;22.10;13.50;;;;;;;;;;107149;1273;22670;-78
2023/04/20 15:15:56;;;;;;;23.60;13.90;;;;;;;;;;107148;1273;24112;-75
2023/04/20 15:18:22;;;;;;;23.70;13.60;;;;;;;;;;107159;1254;24228;-80
2023/04/20 15:20:51;;;;;;;26.80;13.60;;;;;;;;;;107149;1273;22993;-79
2023/04/20 15:23:18;;;;;;;24.90;15.00;;;;;;;;;;107169;1273;23864;-80
2023/04/20 15:25:45;;;;;;;27.80;15.50;;;;;;;;;;107144;1273;22995;-81
2023/04/20 15:28:12;;;;;;;23.30;14.70;;;;;;;;;;107145;1253;22520;-84
2023/04/20 15:30:39;;;;;;;24.70;15.20;;;;;;;;;;107162;1273;22523;-81
2023/04/20 15:33:06;;;;;;;24.30;14.70;;;;;;;;;;107250;1274;25325;-80
2023/04/20 15:35:34;;;;;;;26.20;16.60;;;;;;;;;;107025;1270;24227;-78
2023/04/20 15:38:00;;;;;;;29.10;16.20;;;;;;;;;;107261;1256;22533;-84
2023/04/20 15:40:27;;;;;;;25.10;15.10;;;;;;;;;;106942;1272;22533;-79
2023/04/20 15:42:57;;;;;;;28.40;15.80;;;;;;;;;;106911;1274;22530;-81
2023/04/20 15:45:24;;;;;;;27.30;15.50;;;;;;;;;;106951;1266;23897;-81
2023/04/20 15:47:50;;;;;;;27.10;16.80;;;;;;;;;;107016;1267;22499;-77
2023/04/20 15:50:17;;;;;;;27.70;16.00;;;;;;;;;;107122;1267;25275;-80
2023/04/20 15:52:44;;;;;;;26.30;16.20;;;;;;;;;;107020;1272;22533;-81
2023/04/20 15:55:11;;;;;;;30.00;16.60;;;;;;;;;;107042;1267;24653;-79
2023/04/20 15:57:38;;;;;;;27.40;16.90;;;;;;;;;;107049;1256;22523;-78
2023/04/20 16:00:11;;;;;;;32.30;17.90;;;;;;;;;;106896;1272;25271;-83
2023/04/20 16:02:38;;;;;;;31.80;17.50;;;;;;;;;;107106;1272;22520;-82
2023/04/20 16:05:06;;;;;;;27.10;16.10;;;;;;;;;;107006;1272;26665;-80
2023/04/20 16:07:33;;;;;;;30.20;17.90;;;;;;;;;;107007;1251;24225;-80
2023/04/20 16:10:00;;;;;;;27.70;16.60;;;;;;;;;;106937;1270;24249;-82